Blue Oak Ranch Reserve, California Weather observations

Data are for 10 minute period ending at time listed.
 Day   Time   Solar   Ave.   Ave.  Ave.  Vector  Max.   Baro.   Total    
  of    of     Rad.   Air    Rel.  Wind   Wind   Wind  Press.  Precip.   
Year   Day            Temp.  Hum.  Speed  Dir.   Gust                    
2015   (PST)  Kw/m2    F      %     mph   deg.    mph    mb.     in.     
-------------------------------------------------------------------------
 184    0:00   0.00   63.3    68    2.3   282     4.7   946.8    0.00 
 184    0:10   0.00   62.9    73    1.6   260     4.3   947.0    0.00 
 184    0:20   0.00   62.4    73    0.6    50     1.8   947.0    0.00 
 184    0:30   0.00   61.9    74    0.8   267     2.0   946.9    0.00 
 184    0:40   0.00   61.4    74    1.7   105     2.8   946.8    0.00 
 184    0:50   0.00   61.3    74    1.0   282     2.2   946.6    0.00 
 184    1:00   0.00   60.8    75    0.8   268     1.8   946.5    0.00 
 184    1:10   0.00   60.5    75    0.1   132     0.9   946.3    0.00 
 184    1:20   0.00   60.3    75    0.0     0     0.0   946.3    0.00 
 184    1:30   0.00   60.2    74    0.2   299     1.2   946.2    0.00 
 184    1:40   0.00   60.0    75    0.0     1     0.9   946.2    0.00 
 184    1:50   0.00   59.7    72    1.2    55     2.0   946.2    0.00 
 184    2:00   0.00   59.5    73    0.3   154     1.5   946.1    0.00 
 184    2:10   0.00   59.6    73    1.7   115     3.4   946.2    0.00 
 184    2:20   0.00   60.9    68    1.6    42     2.7   946.1    0.00 
 184    2:30   0.00   60.3    70    1.7   292     3.5   946.0    0.00 
 184    2:40   0.00   59.6    71    0.3   234     2.3   946.0    0.00 
 184    2:50   0.00   59.3    71    0.6    30     1.6   945.9    0.00 
 184    3:00   0.00   59.2    68    0.6    81     1.5   945.8    0.00 
 184    3:10   0.00   59.4    68    0.5   323     1.8   945.9    0.00 
 184    3:20   0.00   61.2    63    0.9    34     2.4   946.0    0.00 
 184    3:30   0.00   61.4    64    0.3   255     1.6   946.0    0.00 
 184    3:40   0.00   60.4    65    0.1    74     1.2   946.1    0.00 
 184    3:50   0.00   60.4    63    0.0   134     0.6   946.1    0.00 
 184    4:00   0.00   61.2    63    0.6   276     3.1   946.1    0.00 
 184    4:10   0.00   60.9    63    1.0   313     2.9   946.1    0.00 
 184    4:20   0.00   60.8    63    0.0     0     0.0   946.1    0.00 
 184    4:30   0.00   60.9    63    0.1    29     0.9   946.2    0.00 
 184    4:40   0.00   61.1    61    1.1    60     1.9   946.2    0.00 
 184    4:50   0.00   60.7    63    0.4   201     1.2   946.3    0.00 
 184    5:00   0.01   60.9    60    1.9    27     3.9   946.3    0.00 
 184    5:10   0.01   62.5    58    2.9   296     5.0   946.1    0.00 
 184    5:20   0.04   62.9    56    2.1   312     4.0   946.4    0.00 
 184    5:30   0.04   63.1    59    4.6   276     7.9   946.8    0.00 
 184    5:40   0.06   62.2    69    2.3   211     5.8   946.9    0.00 
 184    5:50   0.07   62.2    68    0.6   101     1.9   946.9    0.00 
 184    6:00   0.10   63.0    65    0.8    82     2.0   946.9    0.00 
 184    6:10   0.13   64.6    60    1.3    73     2.3   947.0    0.00 
 184    6:20   0.16   65.6    55    1.1   204     3.7   947.1    0.00 
 184    6:30   0.19   67.2    44    2.7   149     6.6   947.2    0.00 
 184    6:40   0.23   69.6    39    0.7   134     2.2   947.2    0.00 
 184    6:50   0.26   72.4    36    1.6   269     3.4   947.3    0.00 
 184    7:00   0.29   73.4    35    0.9   283     2.5   947.3    0.00 
 184    7:10   0.32   75.6    33    1.0   297     2.2   947.4    0.00 
 184    7:20   0.35   77.4    33    2.4   231     9.8   947.7    0.00 
 184    7:30   0.39   74.1    49    3.8   244     7.8   947.7    0.00 
 184    7:40   0.42   72.0    53    2.1   276     4.6   947.7    0.00 
 184    7:50   0.46   74.1    45    1.2   130     3.8   947.7    0.00 
 184    8:00   0.49   75.6    38    4.1   141     6.8   947.8    0.00 
 184    8:10   0.52   75.5    37    4.9   134     6.9   947.9    0.00 
 184    8:20   0.55   75.9    35    3.7   139     6.1   947.9    0.00 
 184    8:30   0.58   77.1    33    3.1   150     5.7   947.8    0.00 
 184    8:40   0.61   78.8    33    3.4   157     6.9   947.7    0.00 
 184    8:50   0.64   78.3    32    4.7   138     7.9   947.7    0.00 
 184    9:00   0.67   79.7    31    3.6   167     7.4   947.7    0.00 
 184    9:10   0.69   79.1    44    5.3   241     8.5   947.7    0.00 
 184    9:20   0.71   77.8    46    4.5   248     7.2   947.8    0.00 
 184    9:30   0.74   78.6    43    3.8   235     5.6   947.7    0.00 
 184    9:40   0.76   79.3    44    5.6   242    11.2   947.7    0.00 
 184    9:50   0.78   78.5    46    4.6   271     8.1   947.7    0.00 
 184   10:00   0.80   79.1    45    4.8   259     9.8   947.6    0.00 
 184   10:10   0.82   79.8    44    4.7   256     8.8   947.5    0.00 
 184   10:20   0.84   80.6    44    5.4   261     8.8   947.5    0.00 
 184   10:30   0.85   80.4    44    6.6   272    10.1   947.5    0.00 
 184   10:40   0.87   80.6    44    5.8   261    11.5   947.5    0.00 
 184   10:50   0.88   81.2    42    4.9   268     8.2   947.5    0.00 
 184   11:00   0.89   82.0    41    4.4   254    10.0   947.4    0.00 
 184   11:10   0.90   82.8    40    5.5   261    10.3   947.3    0.00 
 184   11:20   0.91   82.0    41    6.3   256     9.4   947.3    0.00 
 184   11:30   0.92   82.1    41    5.7   258    10.2   947.3    0.00 
 184   11:40   0.93   82.0    41    5.8   265    10.1   947.2    0.00 
 184   11:50   0.93   82.0    41    6.4   257    11.2   947.2    0.00 
 184   12:00   0.93   82.8    40    4.8   255     9.3   947.2    0.00 
 184   12:10   0.93   83.9    39    4.2   259     9.2   947.1    0.00 
 184   12:20   0.93   84.4    38    5.1   258     8.7   946.9    0.00 
 184   12:30   0.93   84.3    38    5.8   250    11.3   946.8    0.00 
 184   12:40   0.93   84.9    37    6.6   267    11.7   946.8    0.00 
 184   12:50   0.93   84.7    37    6.3   246    10.4   946.8    0.00 
 184   13:00   0.90   85.9    36    5.8   251    11.5   946.7    0.00 
 184   13:10   0.92   85.7    30    6.9   236    12.1   946.5    0.00 
 184   13:20   0.91   86.1    29    6.8   245    11.6   946.4    0.00 
 184   13:30   0.90   86.7    34    5.8   255     9.4   946.3    0.00 
 184   13:40   0.89   86.5    34    6.7   248    11.8   946.2    0.00 
 184   13:50   0.88   86.3    34    5.9   251    10.4   946.1    0.00 
 184   14:00   0.86   87.3    33    6.2   251    10.3   946.1    0.00 
 184   14:10   0.84   86.8    33    6.8   248    10.7   946.1    0.00 
 184   14:20   0.83   86.9    31    5.9   250     9.3   946.0    0.00 
 184   14:30   0.81   87.2    29    5.8   237     9.9   945.9    0.00 
 184   14:40   0.79   86.9    32    6.7   244     9.9   945.9    0.00 
 184   14:50   0.76   87.2    33    6.0   232    10.7   945.8    0.00 
 184   15:00   0.74   87.0    31    5.9   230     9.7   945.7    0.00 
 184   15:10   0.72   87.4    34    5.7   237     9.2   945.6    0.00 
 184   15:20   0.69   86.9    36    5.3   231     9.6   945.6    0.00 
 184   15:30   0.67   86.4    36    6.0   234     9.3   945.6    0.00 
 184   15:40   0.64   87.0    36    5.3   246     8.6   945.5    0.00 
 184   15:50   0.60   86.6    36    5.3   240     9.6   945.4    0.00 
 184   16:00   0.58   86.3    38    5.7   231     8.6   945.3    0.00 
 184   16:10   0.55   86.9    37    5.1   242     8.1   945.3    0.00 
 184   16:20   0.52   86.8    37    5.5   241    10.5   945.3    0.00 
 184   16:30   0.50   86.9    37    5.7   252     8.6   945.2    0.00 
 184   16:40   0.47   86.5    39    5.1   246     9.3   945.2    0.00 
 184   16:50   0.43   85.8    40    4.7   255     8.6   945.1    0.00 
 184   17:00   0.40   84.7    41    5.1   227     7.5   945.1    0.00 
 184   17:10   0.37   84.4    41    5.0   236     7.6   945.2    0.00 
 184   17:20   0.34   83.2    43    5.6   257     8.0   945.1    0.00 
 184   17:30   0.31   83.0    43    4.2   257     6.8   945.1    0.00 
 184   17:40   0.28   82.3    44    4.1   268     7.3   945.1    0.00 
 184   17:50   0.25   81.6    45    4.0   259     6.9   945.2    0.00 
 184   18:00   0.22   80.3    46    3.7   269     6.4   945.2    0.00 
 184   18:10   0.19   79.2    48    3.2   233     5.2   945.3    0.00 
 184   18:20   0.16   79.0    47    2.5   277     4.5   945.5    0.00 
 184   18:30   0.13   78.6    48    2.4   255     4.5   945.5    0.00 
 184   18:40   0.11   78.2    49    2.8   266     4.2   945.5    0.00 
 184   18:50   0.08   77.3    50    2.7   260     4.8   945.6    0.00 
 184   19:00   0.06   75.6    52    2.8   254     5.0   945.7    0.00 
 184   19:10   0.04   75.0    52    1.3   264     2.6   945.7    0.00 
 184   19:20   0.02   74.2    53    2.2   263     5.1   945.8    0.00 
 184   19:30   0.01   71.1    57    3.2   259     5.3   945.8    0.00 
 184   19:40   0.01   69.2    60    0.7   239     1.9   945.8    0.00 
 184   19:50   0.00   68.0    62    0.5   235     2.0   945.8    0.00 
 184   20:00   0.00   67.2    64    0.5    42     1.5   945.8    0.00 
 184   20:10   0.00   66.4    65    0.5    11     1.8   945.7    0.00 
 184   20:20   0.00   65.8    66    0.9   289     1.9   945.6    0.00 
 184   20:30   0.00   65.3    66    0.7   291     1.2   945.5    0.00 
 184   20:40   0.00   64.7    67    1.1    42     2.0   945.4    0.00 
 184   20:50   0.00   64.1    68    0.9    48     1.7   945.4    0.00 
 184   21:00   0.00   63.7    69    1.4   324     2.1   945.4    0.00 
 184   21:10   0.00   63.5    70    2.1   289     3.2   945.5    0.00 
 184   21:20   0.00   63.2    70    0.5   298     2.3   945.6    0.00 
 184   21:30   0.00   63.0    71    1.5    72     1.9   945.6    0.00 
 184   21:40   0.00   62.6    70    0.5    54     1.8   945.6    0.00 
 184   21:50   0.00   62.2    72    0.3    44     1.8   945.6    0.00 
 184   22:00   0.00   62.1    72    0.9    42     1.7   945.5    0.00 
 184   22:10   0.00   61.6    73    2.0   298     4.4   945.4    0.00 
 184   22:20   0.00   61.1    74    2.1   290     3.9   945.3    0.00 
 184   22:30   0.00   60.9    76    0.4    35     2.0   945.4    0.00 
 184   22:40   0.00   61.3    75    0.7   293     2.3   945.4    0.00 
 184   22:50   0.00   60.9    76    0.1   294     1.2   945.4    0.00 

Return to Blue Oak Ranch Reserve graphs page.


Western Regional Climate Center,wrcc@dri.edu